Time;durP1;ratioP1;P1;durP2;ratioP2;P2;SDS_P1;SDS_P2;PMS_P1;PMS_P2;Temp;Humidity;BMP_temperature;BMP_pressure;BME280_temperature;BME280_humidity;BME280_pressure;Samples;Min_cycle;Max_cycle;Signal;HPM_P1;HPM_P2
2023/09/27 00:00:46;;;;;;;0.00;0.00;;;21.80;99.90;;;;;;5063056;28;20589;-71
2023/09/27 00:03:12;;;;;;;0.00;0.00;;;21.80;99.90;;;;;;5077439;28;20463;-71
2023/09/27 00:05:39;;;;;;;0.00;0.00;;;21.80;99.90;;;;;;5083976;28;20423;-70
2023/09/27 00:08:06;;;;;;;0.00;0.00;;;21.80;99.90;;;;;;5084968;28;20493;-71
2023/09/27 00:10:33;;;;;;;0.00;0.00;;;21.80;99.90;;;;;;5077222;28;20439;-71
2023/09/27 00:13:00;;;;;;;0.00;0.00;;;21.80;99.90;;;;;;5081189;28;20417;-71
2023/09/27 00:15:26;;;;;;;0.00;0.00;;;21.80;99.90;;;;;;5079889;28;20863;-70
2023/09/27 00:17:52;;;;;;;0.00;0.00;;;21.80;99.90;;;;;;5082030;28;20498;-71
2023/09/27 00:20:21;;;;;;;0.00;0.00;;;21.80;99.90;;;;;;5076849;28;20422;-71
2023/09/27 00:22:48;;;;;;;0.00;0.00;;;21.80;99.90;;;;;;5099459;28;20440;-71
2023/09/27 00:25:14;;;;;;;0.00;0.00;;;21.80;99.90;;;;;;5099303;28;20406;-71
2023/09/27 00:27:41;;;;;;;0.00;0.00;;;21.80;99.90;;;;;;5082128;28;20410;-71
2023/09/27 00:30:13;;;;;;;0.00;0.00;;;21.80;99.90;;;;;;5087090;28;21184;-72
2023/09/27 00:32:40;;;;;;;0.00;0.00;;;21.80;99.90;;;;;;5076425;28;20422;-71
2023/09/27 00:35:14;;;;;;;0.00;0.00;;;21.80;99.90;;;;;;5060292;28;21447;-71
2023/09/27 00:37:40;;;;;;;0.00;0.00;;;21.80;99.90;;;;;;5081225;28;20414;-71
2023/09/27 00:40:10;;;;;;;0.00;0.00;;;21.80;99.90;;;;;;5077844;28;20802;-71
2023/09/27 00:42:37;;;;;;;0.00;0.00;;;21.80;99.90;;;;;;5088810;28;20480;-71
2023/09/27 00:45:04;;;;;;;0.00;0.00;;;21.80;99.90;;;;;;5078340;28;20420;-72
2023/09/27 00:47:32;;;;;;;0.00;0.00;;;21.80;99.90;;;;;;5078432;28;20406;-72
2023/09/27 00:49:59;;;;;;;0.00;0.00;;;21.80;99.90;;;;;;5079085;28;20417;-71
2023/09/27 00:52:27;;;;;;;0.00;0.00;;;21.80;99.90;;;;;;5084230;28;20431;-71
2023/09/27 00:54:54;;;;;;;0.00;0.00;;;21.80;99.90;;;;;;5080029;28;20474;-71
2023/09/27 00:57:22;;;;;;;0.00;0.00;;;21.80;99.90;;;;;;5078521;28;20405;-72
2023/09/27 00:59:49;;;;;;;0.00;0.00;;;21.80;99.90;;;;;;5082154;28;20414;-71
2023/09/27 01:02:17;;;;;;;0.00;0.00;;;21.80;99.90;;;;;;5068687;28;20394;-72
2023/09/27 01:04:44;;;;;;;0.00;0.00;;;21.80;99.90;;;;;;5074125;28;20445;-71
2023/09/27 01:07:11;;;;;;;0.00;0.00;;;21.80;99.90;;;;;;5074986;28;20415;-71
2023/09/27 01:09:38;;;;;;;0.00;0.00;;;21.80;99.90;;;;;;5074156;28;20518;-71
2023/09/27 01:12:05;;;;;;;0.00;0.00;;;21.80;99.90;;;;;;5095477;28;20680;-71
2023/09/27 01:14:32;;;;;;;0.00;0.00;;;21.80;99.90;;;;;;5094620;28;20461;-71
2023/09/27 01:17:11;;;;;;;0.00;0.00;;;21.80;99.90;;;;;;5085291;28;20964;-71
2023/09/27 01:19:38;;;;;;;0.00;0.00;;;21.80;99.90;;;;;;5078240;28;20889;-70
2023/09/27 01:22:05;;;;;;;0.00;0.00;;;21.70;99.90;;;;;;5085814;28;21280;-70
2023/09/27 01:28:13;;;;;;;0.00;0.00;;;21.70;99.90;;;;;;5086643;28;20496;-70
2023/09/27 01:30:39;;;;;;;0.00;0.00;;;21.70;99.90;;;;;;5083109;28;20508;-70
2023/09/27 01:33:12;;;;;;;0.00;0.00;;;21.70;99.90;;;;;;5098770;28;20591;-70
2023/09/27 01:35:44;;;;;;;0.00;0.00;;;21.70;99.90;;;;;;5091466;28;20944;-70
2023/09/27 01:38:15;;;;;;;0.00;0.00;;;21.80;99.90;;;;;;5101441;28;20412;-70
2023/09/27 01:40:45;;;;;;;0.00;0.00;;;21.80;99.90;;;;;;5078228;28;20852;-70
2023/09/27 01:43:12;;;;;;;0.00;0.00;;;21.80;99.90;;;;;;5083058;28;20437;-70
2023/09/27 01:45:39;;;;;;;0.00;0.00;;;21.90;99.90;;;;;;5088848;28;20447;-71
2023/09/27 01:48:06;;;;;;;0.00;0.00;;;21.90;99.90;;;;;;5082302;28;20423;-71
2023/09/27 01:50:34;;;;;;;0.00;0.00;;;21.90;99.90;;;;;;5080080;28;20450;-70
2023/09/27 01:53:01;;;;;;;0.00;0.00;;;21.90;99.90;;;;;;5082671;28;20508;-70
2023/09/27 01:55:28;;;;;;;0.00;0.00;;;21.90;99.90;;;;;;5087069;28;20484;-71
2023/09/27 01:57:55;;;;;;;0.00;0.00;;;21.90;99.90;;;;;;5085704;28;20420;-71
2023/09/27 02:00:21;;;;;;;0.00;0.00;;;21.90;99.90;;;;;;5089726;28;20420;-71
2023/09/27 02:02:59;;;;;;;0.00;0.00;;;21.90;99.90;;;;;;5085429;28;20413;-71
2023/09/27 02:05:30;;;;;;;0.00;0.00;;;21.90;99.90;;;;;;5087342;28;20405;-70
2023/09/27 02:07:57;;;;;;;0.00;0.00;;;21.80;99.90;;;;;;5085472;28;20938;-70
2023/09/27 02:10:24;;;;;;;0.00;0.00;;;21.80;99.90;;;;;;5083310;28;20419;-70
2023/09/27 02:12:51;;;;;;;0.00;0.00;;;21.80;99.90;;;;;;5087396;28;20432;-71
2023/09/27 02:15:17;;;;;;;0.00;0.00;;;21.80;99.90;;;;;;5097707;28;20420;-70
2023/09/27 02:17:44;;;;;;;0.00;0.00;;;21.80;99.90;;;;;;5088268;28;20413;-70
2023/09/27 02:20:17;;;;;;;0.00;0.00;;;21.80;99.90;;;;;;5084125;28;20427;-70
2023/09/27 02:22:47;;;;;;;0.00;0.00;;;21.80;99.90;;;;;;5076106;28;21205;-70
2023/09/27 02:25:14;;;;;;;0.00;0.00;;;21.80;99.90;;;;;;5082105;28;20437;-70
2023/09/27 02:27:42;;;;;;;0.00;0.00;;;21.80;99.90;;;;;;5079124;28;20515;-70
2023/09/27 02:30:14;;;;;;;0.00;0.00;;;21.80;99.90;;;;;;5080901;28;20409;-70
2023/09/27 02:32:42;;;;;;;0.00;0.00;;;21.80;99.90;;;;;;5080497;28;20500;-70
2023/09/27 02:35:11;;;;;;;0.00;0.00;;;21.80;99.90;;;;;;5080202;28;20428;-71
2023/09/27 02:37:43;;;;;;;0.00;0.00;;;21.80;99.90;;;;;;5097499;28;20419;-70
2023/09/27 02:40:14;;;;;;;0.00;0.00;;;21.70;99.90;;;;;;5080931;28;20434;-70
2023/09/27 02:42:46;;;;;;;0.00;0.00;;;21.70;99.90;;;;;;5076445;28;20453;-70
2023/09/27 02:45:13;;;;;;;0.00;0.00;;;21.70;99.90;;;;;;5058956;28;20411;-71
2023/09/27 02:47:43;;;;;;;0.00;0.00;;;21.70;99.90;;;;;;5087134;28;20417;-70
2023/09/27 02:50:11;;;;;;;0.00;0.00;;;21.70;99.90;;;;;;5084608;28;20486;-70
2023/09/27 02:52:40;;;;;;;0.00;0.00;;;21.70;99.90;;;;;;5074508;28;20411;-70
2023/09/27 02:55:11;;;;;;;0.00;0.00;;;21.70;99.90;;;;;;5075344;28;20443;-70
2023/09/27 02:57:38;;;;;;;0.00;0.00;;;21.60;99.90;;;;;;5078991;28;20452;-70
2023/09/27 03:00:06;;;;;;;0.00;0.00;;;21.60;99.90;;;;;;5078933;28;20425;-70
2023/09/27 03:02:33;;;;;;;0.00;0.00;;;21.60;99.90;;;;;;5075563;28;20422;-70
2023/09/27 03:04:59;;;;;;;0.00;0.00;;;21.60;99.90;;;;;;5078598;28;20511;-70
2023/09/27 03:07:26;;;;;;;0.00;0.00;;;21.60;99.90;;;;;;5077026;28;20495;-70
2023/09/27 03:09:52;;;;;;;0.00;0.00;;;21.60;99.90;;;;;;5084621;28;20414;-70
2023/09/27 03:12:18;;;;;;;0.00;0.00;;;21.60;99.90;;;;;;5090095;28;20411;-72
2023/09/27 03:14:44;;;;;;;0.00;0.00;;;21.50;99.90;;;;;;5079922;28;20496;-71
2023/09/27 03:17:11;;;;;;;0.00;0.00;;;21.50;99.90;;;;;;5075951;28;20415;-72
2023/09/27 03:19:36;;;;;;;0.00;0.00;;;21.50;99.90;;;;;;5078966;28;20443;-72
2023/09/27 03:22:03;;;;;;;0.00;0.00;;;21.40;99.90;;;;;;5094918;28;20444;-72
2023/09/27 03:24:30;;;;;;;0.00;0.00;;;21.40;99.90;;;;;;5081432;28;20439;-72
2023/09/27 03:26:57;;;;;;;0.00;0.00;;;21.30;99.90;;;;;;5073780;28;20417;-71
2023/09/27 03:29:23;;;;;;;0.00;0.00;;;21.30;99.90;;;;;;5081900;28;20501;-72
2023/09/27 03:31:50;;;;;;;0.00;0.00;;;21.30;99.90;;;;;;5085721;28;20539;-71
2023/09/27 03:34:16;;;;;;;0.00;0.00;;;21.30;99.90;;;;;;5066670;28;20413;-71
2023/09/27 03:36:44;;;;;;;0.00;0.00;;;21.30;99.90;;;;;;5081369;28;20437;-71
2023/09/27 03:39:10;;;;;;;0.00;0.00;;;21.30;99.90;;;;;;5078701;28;20489;-72
2023/09/27 03:41:38;;;;;;;0.00;0.00;;;21.30;99.90;;;;;;5081449;28;20424;-71
2023/09/27 03:44:05;;;;;;;0.00;0.00;;;21.40;99.90;;;;;;5079443;28;20406;-71
2023/09/27 03:46:31;;;;;;;0.00;0.00;;;21.40;99.90;;;;;;5088375;28;20806;-71
2023/09/27 03:48:57;;;;;;;0.00;0.00;;;21.40;99.90;;;;;;5076306;28;20460;-72
2023/09/27 03:51:26;;;;;;;0.00;0.00;;;21.40;99.90;;;;;;5088095;28;20437;-71
2023/09/27 03:53:52;;;;;;;0.00;0.00;;;21.40;99.90;;;;;;5082562;28;20525;-72
2023/09/27 03:56:18;;;;;;;0.00;0.00;;;21.40;99.90;;;;;;5092890;28;20407;-71
2023/09/27 03:58:44;;;;;;;0.00;0.00;;;21.40;99.90;;;;;;5067264;28;20488;-72
2023/09/27 04:01:11;;;;;;;0.00;0.00;;;21.40;99.90;;;;;;5086434;28;20456;-71
2023/09/27 04:03:38;;;;;;;0.00;0.00;;;21.40;99.90;;;;;;5085210;28;20433;-72
2023/09/27 04:06:04;;;;;;;0.00;0.00;;;21.40;99.90;;;;;;5081495;28;20414;-72
2023/09/27 04:08:32;;;;;;;0.00;0.00;;;21.40;99.90;;;;;;5095820;27;20903;-71
2023/09/27 04:10:58;;;;;;;0.00;0.00;;;21.40;99.90;;;;;;5074836;28;20433;-71
2023/09/27 04:13:24;;;;;;;0.00;0.00;;;21.40;99.90;;;;;;5076535;28;20429;-70
2023/09/27 04:15:50;;;;;;;0.00;0.00;;;21.40;99.90;;;;;;5082901;28;20428;-70
2023/09/27 04:18:16;;;;;;;0.00;0.00;;;21.40;99.90;;;;;;5081634;28;21158;-70
2023/09/27 04:20:43;;;;;;;0.00;0.00;;;21.50;99.90;;;;;;5084602;28;20911;-72
2023/09/27 04:23:09;;;;;;;0.00;0.00;;;21.60;99.90;;;;;;5071560;28;20410;-69
2023/09/27 04:25:36;;;;;;;0.00;0.00;;;21.60;99.90;;;;;;5065570;28;20492;-70
2023/09/27 04:28:02;;;;;;;0.00;0.00;;;21.60;99.90;;;;;;5097513;28;20414;-70
2023/09/27 04:30:31;;;;;;;0.00;0.00;;;21.70;99.90;;;;;;5079085;28;21234;-70
2023/09/27 04:32:57;;;;;;;0.00;0.00;;;21.70;99.90;;;;;;5084459;28;21047;-70
2023/09/27 04:35:23;;;;;;;0.00;0.00;;;21.80;99.90;;;;;;5085997;28;20418;-71
2023/09/27 04:37:49;;;;;;;0.00;0.00;;;21.80;99.90;;;;;;5083865;28;20990;-71
2023/09/27 04:40:17;;;;;;;0.00;0.00;;;21.90;99.90;;;;;;5078224;28;20511;-71
2023/09/27 04:42:44;;;;;;;0.00;0.00;;;22.00;99.90;;;;;;5079471;28;20400;-72
2023/09/27 04:45:14;;;;;;;0.00;0.00;;;22.00;99.90;;;;;;5083427;28;20455;-72
2023/09/27 04:47:42;;;;;;;0.00;0.00;;;22.00;99.90;;;;;;5080213;28;20918;-73
2023/09/27 04:50:10;;;;;;;0.00;0.00;;;22.00;99.90;;;;;;5070967;28;20425;-72
2023/09/27 04:52:37;;;;;;;0.00;0.00;;;22.10;99.90;;;;;;5063018;28;20483;-72
2023/09/27 04:55:05;;;;;;;0.00;0.00;;;22.20;99.90;;;;;;5077691;28;20504;-73
2023/09/27 04:57:32;;;;;;;0.00;0.00;;;22.20;99.90;;;;;;5085119;28;20495;-72
2023/09/27 04:59:58;;;;;;;0.00;0.00;;;22.20;99.90;;;;;;5063525;28;20414;-72
2023/09/27 05:02:27;;;;;;;0.00;0.00;;;22.20;99.90;;;;;;5070921;28;20477;-74
2023/09/27 05:04:53;;;;;;;0.00;0.00;;;22.20;99.90;;;;;;5068482;28;20512;-73
2023/09/27 05:07:20;;;;;;;0.00;0.00;;;22.30;99.90;;;;;;5088081;28;20418;-73
2023/09/27 05:09:47;;;;;;;0.00;0.00;;;22.30;99.90;;;;;;5099388;28;20415;-73
2023/09/27 05:12:14;;;;;;;0.00;0.00;;;22.40;99.90;;;;;;5084546;28;20418;-72
2023/09/27 05:14:41;;;;;;;0.00;0.00;;;22.40;99.90;;;;;;5084421;28;20452;-72
2023/09/27 05:17:09;;;;;;;0.00;0.00;;;22.50;99.90;;;;;;5092723;28;20471;-72
2023/09/27 05:19:35;;;;;;;0.00;0.00;;;22.50;99.90;;;;;;5070767;28;20418;-72
2023/09/27 05:22:01;;;;;;;0.00;0.00;;;22.60;99.90;;;;;;5100345;28;20941;-72
2023/09/27 05:24:27;;;;;;;0.00;0.00;;;22.70;99.90;;;;;;5081260;28;20409;-72
2023/09/27 05:26:57;;;;;;;0.00;0.00;;;22.70;99.90;;;;;;5084656;28;20458;-72
2023/09/27 05:29:24;;;;;;;0.00;0.00;;;22.70;99.90;;;;;;5099736;28;20448;-72
2023/09/27 05:31:51;;;;;;;0.00;0.00;;;22.80;99.90;;;;;;5079890;28;20791;-72
2023/09/27 05:34:17;;;;;;;0.00;0.00;;;22.80;99.90;;;;;;5084957;28;20471;-72
2023/09/27 05:36:43;;;;;;;0.00;0.00;;;22.90;99.90;;;;;;5086264;28;20418;-72
2023/09/27 05:39:10;;;;;;;0.00;0.00;;;22.90;99.90;;;;;;5096078;28;20908;-72
2023/09/27 05:41:36;;;;;;;0.00;0.00;;;23.00;99.90;;;;;;5094544;27;20410;-72
2023/09/27 05:44:03;;;;;;;0.00;0.00;;;23.00;99.90;;;;;;5097612;28;20410;-72
2023/09/27 05:46:32;;;;;;;0.00;0.00;;;23.10;99.90;;;;;;5086920;28;20414;-71
2023/09/27 05:49:01;;;;;;;0.00;0.00;;;23.10;99.90;;;;;;5086608;28;20434;-72
2023/09/27 05:51:31;;;;;;;0.00;0.00;;;23.10;99.90;;;;;;5088495;28;20411;-72
2023/09/27 05:53:58;;;;;;;0.00;0.00;;;23.10;99.90;;;;;;5082970;28;20447;-71
2023/09/27 05:56:28;;;;;;;0.00;0.00;;;23.10;99.90;;;;;;5079995;28;20750;-72
2023/09/27 05:58:54;;;;;;;0.00;0.00;;;23.10;99.90;;;;;;5083619;28;20524;-73
2023/09/27 06:01:20;;;;;;;0.00;0.00;;;23.20;99.90;;;;;;5083090;28;20899;-72
2023/09/27 06:03:47;;;;;;;0.00;0.00;;;23.20;99.90;;;;;;5083763;28;20501;-73
2023/09/27 06:06:14;;;;;;;0.00;0.00;;;23.20;99.90;;;;;;5084704;28;20418;-73
2023/09/27 06:08:41;;;;;;;0.00;0.00;;;23.20;99.90;;;;;;5104957;27;20410;-73
2023/09/27 06:11:09;;;;;;;0.00;0.00;;;23.20;99.90;;;;;;5072211;28;20931;-72
2023/09/27 06:13:37;;;;;;;0.00;0.00;;;23.20;99.90;;;;;;5076508;28;20424;-73
2023/09/27 06:16:13;;;;;;;0.00;0.00;;;23.20;99.90;;;;;;5084386;28;20413;-71
2023/09/27 06:18:40;;;;;;;0.00;0.00;;;23.30;99.90;;;;;;5098589;28;22317;-73
2023/09/27 06:21:06;;;;;;;0.00;0.00;;;23.30;99.90;;;;;;5095823;28;20449;-72
2023/09/27 06:23:32;;;;;;;0.00;0.00;;;23.40;99.90;;;;;;5083528;28;20893;-72
2023/09/27 06:25:58;;;;;;;0.00;0.00;;;23.40;99.90;;;;;;5082232;28;20409;-73
2023/09/27 06:28:24;;;;;;;0.00;0.00;;;23.50;99.90;;;;;;5084808;28;20418;-73
2023/09/27 06:30:50;;;;;;;0.00;0.00;;;23.50;99.90;;;;;;5082595;28;20531;-73
2023/09/27 06:33:17;;;;;;;0.00;0.00;;;23.60;99.90;;;;;;5077654;28;20424;-73
2023/09/27 06:35:43;;;;;;;0.00;0.00;;;23.60;99.90;;;;;;5102168;28;20448;-73
2023/09/27 06:38:09;;;;;;;0.00;0.00;;;23.70;99.90;;;;;;5083520;28;20416;-73
2023/09/27 06:40:35;;;;;;;0.00;0.00;;;23.80;99.90;;;;;;5093913;28;20912;-73
2023/09/27 06:43:04;;;;;;;0.00;0.00;;;23.80;99.90;;;;;;5078510;28;20422;-73
2023/09/27 06:45:32;;;;;;;0.00;0.00;;;23.80;99.90;;;;;;5080834;28;20425;-73
2023/09/27 06:47:58;;;;;;;0.00;0.00;;;23.90;99.90;;;;;;5080134;28;20794;-73
2023/09/27 06:50:25;;;;;;;0.00;0.00;;;24.00;99.90;;;;;;5082602;28;20418;-74
2023/09/27 06:52:51;;;;;;;0.00;0.00;;;24.00;99.90;;;;;;5060923;28;21043;-73
2023/09/27 06:55:18;;;;;;;0.00;0.00;;;24.00;99.90;;;;;;5081484;28;20418;-73
2023/09/27 06:57:52;;;;;;;0.00;0.00;;;24.10;99.90;;;;;;5074504;28;20418;-73
2023/09/27 07:00:23;;;;;;;0.00;0.00;;;24.10;99.90;;;;;;5077206;28;20418;-73
2023/09/27 07:02:50;;;;;;;0.00;0.00;;;24.20;99.90;;;;;;5077906;28;20734;-73
2023/09/27 07:05:20;;;;;;;0.00;0.00;;;24.20;99.90;;;;;;5076426;28;20419;-73
2023/09/27 07:07:48;;;;;;;0.00;0.00;;;24.30;99.90;;;;;;5075958;28;21309;-73
2023/09/27 07:10:14;;;;;;;0.00;0.00;;;24.30;99.90;;;;;;5081022;28;20505;-73
2023/09/27 07:12:41;;;;;;;0.00;0.00;;;24.40;99.90;;;;;;5078711;28;20512;-73
2023/09/27 07:15:10;;;;;;;0.00;0.00;;;24.50;99.90;;;;;;5077502;28;21122;-73
2023/09/27 07:17:38;;;;;;;0.00;0.00;;;24.50;99.90;;;;;;5081643;28;20409;-70
2023/09/27 07:22:42;;;;;;;0.00;0.00;;;24.70;99.90;;;;;;5075815;28;20411;-71
2023/09/27 07:25:12;;;;;;;0.03;0.03;;;24.80;99.90;;;;;;5071647;28;20498;-73
2023/09/27 07:27:42;;;;;;;0.00;0.00;;;24.80;99.90;;;;;;5067531;28;20418;-74
2023/09/27 07:30:17;;;;;;;0.00;0.00;;;24.90;99.90;;;;;;5075823;28;20452;-74
2023/09/27 07:32:45;;;;;;;0.00;0.00;;;25.00;99.90;;;;;;5074335;28;20480;-73
2023/09/27 07:35:14;;;;;;;0.00;0.00;;;25.10;99.90;;;;;;5078353;28;20542;-73
2023/09/27 07:37:41;;;;;;;0.00;0.00;;;25.10;99.90;;;;;;5070842;28;20964;-73
2023/09/27 07:40:14;;;;;;;0.00;0.00;;;25.10;99.90;;;;;;5077755;28;20868;-72
2023/09/27 07:42:45;;;;;;;0.00;0.00;;;25.20;99.90;;;;;;5071833;28;20471;-73
2023/09/27 07:45:22;;;;;;;0.00;0.00;;;25.30;99.90;;;;;;5092259;28;20406;-73
2023/09/27 07:47:54;;;;;;;0.00;0.00;;;25.40;99.90;;;;;;5073804;28;21735;-73
2023/09/27 07:50:31;;;;;;;0.00;0.00;;;25.50;99.90;;;;;;5077953;28;20424;-73
2023/09/27 07:53:06;;;;;;;0.00;0.00;;;25.50;99.90;;;;;;5071762;28;20423;-73
2023/09/27 07:55:48;;;;;;;0.00;0.00;;;25.60;99.90;;;;;;5090562;28;20770;-73
2023/09/27 07:58:14;;;;;;;0.00;0.00;;;25.60;99.90;;;;;;5079841;28;20418;-73
2023/09/27 08:00:41;;;;;;;0.00;0.00;;;25.70;99.90;;;;;;5083064;28;20413;-73
2023/09/27 08:03:14;;;;;;;0.00;0.00;;;25.70;99.90;;;;;;5063149;28;20190;-73
2023/09/27 08:05:44;;;;;;;0.00;0.00;;;25.80;99.90;;;;;;5095685;28;20182;-73
2023/09/27 08:08:14;;;;;;;0.00;0.00;;;25.90;99.90;;;;;;5079348;28;20197;-73
2023/09/27 08:10:43;;;;;;;0.00;0.00;;;25.90;99.90;;;;;;5088586;28;21198;-73
2023/09/27 08:13:15;;;;;;;0.00;0.00;;;26.00;99.90;;;;;;5085413;28;20205;-72
2023/09/27 08:15:43;;;;;;;0.00;0.00;;;26.00;99.90;;;;;;5071205;28;20266;-73
2023/09/27 08:18:09;;;;;;;0.00;0.00;;;26.10;99.90;;;;;;5073836;28;20289;-73
2023/09/27 08:20:35;;;;;;;0.00;0.00;;;26.10;99.90;;;;;;5080226;28;20237;-73
2023/09/27 08:23:03;;;;;;;0.00;0.00;;;26.20;99.90;;;;;;5087204;28;20285;-73
2023/09/27 08:25:30;;;;;;;0.00;0.00;;;26.20;99.90;;;;;;5080138;28;20261;-73
2023/09/27 08:27:56;;;;;;;0.10;0.10;;;26.30;99.90;;;;;;5053924;28;20187;-73
2023/09/27 08:30:23;;;;;;;0.00;0.00;;;26.40;99.90;;;;;;5092113;28;20552;-73
2023/09/27 08:32:51;;;;;;;0.00;0.00;;;26.50;99.90;;;;;;5082005;28;20277;-74
2023/09/27 08:35:17;;;;;;;0.00;0.00;;;26.60;99.90;;;;;;5075777;28;20194;-73
2023/09/27 08:37:43;;;;;;;0.00;0.00;;;26.70;99.90;;;;;;5083917;28;20608;-73
2023/09/27 08:40:13;;;;;;;0.00;0.00;;;26.80;99.90;;;;;;5080004;28;20222;-73
2023/09/27 08:42:41;;;;;;;0.00;0.00;;;26.80;99.90;;;;;;5103273;28;20750;-71
2023/09/27 08:45:15;;;;;;;0.00;0.00;;;27.00;99.90;;;;;;5083214;28;20735;-74
2023/09/27 08:47:44;;;;;;;0.00;0.00;;;27.10;99.90;;;;;;5079477;28;20885;-74
2023/09/27 08:50:13;;;;;;;0.10;0.10;;;27.20;99.90;;;;;;5077384;28;20186;-73
2023/09/27 08:52:48;;;;;;;0.00;0.00;;;27.30;99.90;;;;;;5081910;28;20862;-74
2023/09/27 08:55:17;;;;;;;0.00;0.00;;;27.30;99.90;;;;;;5079683;28;20512;-74
